PATK/TKA METAR and TAF weather

Enter ICAO airport designator
Station Type Date Time Source
PATK METAR 2020/01/21 08:53 UTC NOAA

PATK 210853Z AUTO 00000KT 6SM -SN OVC060 M09/M12 A2949 RMK AO2 SLP996 P0001 60001 T10941122 410671128 51009 TSNO $


Station Type Date Time Source
PATK Decoded METAR 2020/01/21 08:53 UTC NOAA

TALKEETNA AIRPORT, AK, United States (PATK) 62-19N 150-06W 109M
Jan 21, 2020 - 03:53 AM EST / 2020.01.21 0853 UTC
Wind: Calm:0
Visibility: 6 mile(s):0
Sky conditions: overcast
Weather: light snow
Precipitation last hour: 0.01 inches
Temperature: 15.1 F (-9.4 C)
Dew Point: 10.0 F (-12.2 C)
Relative Humidity: 80%
Pressure (altimeter): 29.49 in. Hg (998 hPa)
Pressure tendency: 0.03 inches (0.9 hPa) higher than three hours ago
ob: PATK 210853Z AUTO 00000KT 6SM -SN OVC060 M09/M12 A2949 RMK AO2 SLP996 P0001 60001 T10941122 410671128 51009 TSNO
cycle: 9

Station Type Date Time Source
PATK TAF 2020/01/21 08:22 UTC NOAA

TAF PATK 210820Z 2108/2206 00000KT 6SM -SHSN FEW015 SCT025 BKN045
TEMPO 2108/2112 2SM -SN BR BKN025
FM211200 VRB03KT P6SM SCT020 OVC035
FM220000 35004KT 6SM -SN BKN020

Example: see airport list